Garland's Hourly Summary for Wednesday, July 11, 2018
Hour Temp
(f)
RH
(%)
Solar Rad.
(MJ/m2)
Rainfall
(in)
Wind
(mph)
7/11/2018 12:00 AM 78 71 0 0 0.66
7/11/2018 1:00 AM 77 72 0 0 0.01
7/11/2018 2:00 AM 77 72 0 0 0.46
7/11/2018 3:00 AM 76 76 0 0 0.38
7/11/2018 4:00 AM 76 78 0 0 0.73
7/11/2018 5:00 AM 75 80 0 0 0.01
7/11/2018 6:00 AM 74 82 0 0 0.12
7/11/2018 7:00 AM 75 80 0.02 0 0.62
7/11/2018 8:00 AM 76 76 0.15 0 1.99
7/11/2018 9:00 AM 76 75 0.33 0 3.57
7/11/2018 10:00 AM 78 67 0.75 0 2.77
7/11/2018 11:00 AM 82 54 1.77 0 2.27
7/11/2018 12:00 PM 87 44 2.75 0 3.14
7/11/2018 1:00 PM 89 40 3.3 0 4.92
7/11/2018 2:00 PM 91 26 3.29 0 5.58
7/11/2018 3:00 PM 93 23 3.32 0 6.15
7/11/2018 4:00 PM 93 29 2.27 0 6.16
7/11/2018 5:00 PM 92 31 2.24 0 8.34
7/11/2018 6:00 PM 93 31 1.37 0 5.69
7/11/2018 7:00 PM 91 34 0.42 0 6.42
7/11/2018 8:00 PM 87 48 0.22 0 7.11
7/11/2018 9:00 PM 85 52 0.05 0 5.52
7/11/2018 10:00 PM 83 55 0 0 5.5
7/11/2018 11:00 PM 81 57 0 0 4.78
Data Summary 82 56 22.25 0.00 3.45